Time;durP1;ratioP1;P1;durP2;ratioP2;P2;SDS_P1;SDS_P2;PMS_P1;PMS_P2;Temp;Humidity;BMP_temperature;BMP_pressure;BME280_temperature;BME280_humidity;BME280_pressure;Samples;Min_cycle;Max_cycle;Signal;HPM_P1;HPM_P2
2023/04/22 00:02:15;;;;;;;10.50;6.85;;;10.40;99.90;;;;;;5093140;27;20089;-63
2023/04/22 00:04:42;;;;;;;8.90;6.57;;;10.60;99.90;;;;;;5094553;27;20577;-64
2023/04/22 00:07:08;;;;;;;10.00;7.85;;;10.40;99.90;;;;;;5095653;27;20081;-64
2023/04/22 00:09:34;;;;;;;9.23;8.05;;;10.50;99.90;;;;;;5093466;28;20122;-64
2023/04/22 00:12:01;;;;;;;10.63;6.95;;;10.50;99.90;;;;;;5093794;27;20044;-63
2023/04/22 00:14:27;;;;;;;11.80;7.43;;;10.60;99.90;;;;;;5094497;27;20047;-63
2023/04/22 00:16:52;;;;;;;10.85;8.27;;;10.40;99.90;;;;;;5075590;28;20054;-62
2023/04/22 00:19:18;;;;;;;8.75;6.60;;;10.30;99.90;;;;;;5058465;27;20054;-63
2023/04/22 00:21:44;;;;;;;10.38;7.78;;;10.20;99.90;;;;;;5093288;28;20047;-62
2023/04/22 00:24:10;;;;;;;12.07;7.70;;;10.10;99.90;;;;;;5075900;28;20046;-63
2023/04/22 00:26:35;;;;;;;10.30;7.65;;;10.00;99.90;;;;;;5093863;27;20126;-62
2023/04/22 00:29:01;;;;;;;9.77;7.28;;;9.80;99.90;;;;;;5093046;28;20039;-62
2023/04/22 00:31:27;;;;;;;12.45;7.93;;;9.90;99.90;;;;;;5093877;27;20066;-62
2023/04/22 00:33:53;;;;;;;10.63;8.80;;;9.90;99.90;;;;;;5093314;28;20039;-62
2023/04/22 00:36:18;;;;;;;9.18;8.00;;;9.80;99.90;;;;;;5095698;27;20352;-63
2023/04/22 00:38:48;;;;;;;14.18;9.50;;;9.50;99.90;;;;;;5093075;28;20577;-62
2023/04/22 00:41:14;;;;;;;9.00;6.90;;;9.60;99.90;;;;;;5093252;27;20062;-62
2023/04/22 00:43:40;;;;;;;24.92;6.72;;;9.60;99.90;;;;;;5095414;27;20910;-63
2023/04/22 00:46:06;;;;;;;11.55;6.50;;;9.40;99.90;;;;;;5093148;27;20059;-64
2023/04/22 00:48:31;;;;;;;10.05;7.22;;;10.30;99.90;;;;;;5094355;28;20126;-63
2023/04/22 00:50:57;;;;;;;7.88;6.53;;;9.40;99.90;;;;;;5093607;27;20146;-63
2023/04/22 00:53:23;;;;;;;10.10;7.70;;;9.10;99.90;;;;;;5076400;28;20042;-65
2023/04/22 00:55:49;;;;;;;13.00;8.50;;;9.10;99.90;;;;;;5092678;27;20043;-64
2023/04/22 00:58:16;;;;;;;10.30;7.28;;;9.00;99.90;;;;;;5075211;28;20047;-63
2023/04/22 01:00:42;;;;;;;97.53;7.20;;;9.90;99.90;;;;;;5093048;27;20590;-63
2023/04/22 01:03:08;;;;;;;12.27;6.93;;;9.00;99.90;;;;;;5094347;28;20071;-64
2023/04/22 01:05:34;;;;;;;15.85;8.45;;;8.80;99.90;;;;;;5094396;27;20063;-64
2023/04/22 01:08:01;;;;;;;10.73;8.73;;;9.00;99.90;;;;;;5093663;27;20064;-65
2023/04/22 01:10:26;;;;;;;11.77;9.02;;;9.20;99.90;;;;;;5092201;27;20055;-65
2023/04/22 01:12:52;;;;;;;10.88;9.07;;;8.90;99.90;;;;;;5093349;27;20048;-65
2023/04/22 01:15:18;;;;;;;11.30;8.70;;;8.80;99.90;;;;;;5092654;28;20067;-66
2023/04/22 01:17:44;;;;;;;12.68;10.10;;;8.90;99.90;;;;;;5092568;27;20052;-65
2023/04/22 01:20:11;;;;;;;12.05;9.32;;;8.90;99.90;;;;;;5092854;27;20496;-65
2023/04/22 01:22:41;;;;;;;10.32;8.55;;;9.00;99.90;;;;;;5092777;28;20104;-65
2023/04/22 01:25:08;;;;;;;135.85;11.35;;;8.90;99.90;;;;;;5092126;27;20100;-65
2023/04/22 01:27:34;;;;;;;25.40;9.88;;;8.90;99.90;;;;;;5092037;28;20427;-65
2023/04/22 01:30:01;;;;;;;13.18;9.00;;;8.70;99.90;;;;;;5074294;28;20071;-65
2023/04/22 01:32:29;;;;;;;13.18;8.43;;;8.80;99.90;;;;;;5093497;28;20043;-66
2023/04/22 01:34:55;;;;;;;14.88;10.07;;;8.80;99.90;;;;;;5092304;28;20381;-66
2023/04/22 01:37:20;;;;;;;12.15;9.43;;;8.80;99.90;;;;;;5093662;28;20096;-66
2023/04/22 01:39:47;;;;;;;11.52;8.88;;;8.60;99.90;;;;;;5091793;28;20066;-65
2023/04/22 01:42:13;;;;;;;11.10;7.28;;;8.70;99.90;;;;;;5093088;28;20062;-66
2023/04/22 01:44:39;;;;;;;12.07;8.15;;;8.70;99.90;;;;;;5092059;28;20039;-65
2023/04/22 01:47:05;;;;;;;13.95;9.98;;;8.60;99.90;;;;;;5073841;28;20526;-66
2023/04/22 01:49:31;;;;;;;12.20;7.25;;;9.40;99.90;;;;;;5093410;28;20400;-66
2023/04/22 01:51:57;;;;;;;17.70;8.80;;;10.00;99.90;;;;;;5074928;28;20050;-66
2023/04/22 01:54:23;;;;;;;21.88;8.98;;;8.30;99.90;;;;;;5091991;28;20151;-66
2023/04/22 01:56:53;;;;;;;14.27;10.85;;;8.40;99.90;;;;;;5094034;28;20456;-67
2023/04/22 01:59:20;;;;;;;20.52;11.77;;;8.50;99.90;;;;;;5093603;28;20346;-66
2023/04/22 02:01:45;;;;;;;13.82;12.25;;;8.90;99.90;;;;;;5093103;28;20048;-66
2023/04/22 02:04:11;;;;;;;15.65;13.75;;;8.70;99.90;;;;;;5092476;28;20051;-66
2023/04/22 02:06:37;;;;;;;17.88;14.93;;;8.50;99.90;;;;;;5094452;28;20624;-65
2023/04/22 02:09:03;;;;;;;48.58;13.98;;;9.10;99.90;;;;;;5092575;28;20117;-65
2023/04/22 02:11:29;;;;;;;376.85;22.02;;;8.90;99.90;;;;;;5093745;28;20092;-65
2023/04/22 02:13:55;;;;;;;20.90;14.23;;;8.80;99.90;;;;;;5092817;28;20039;-66
2023/04/22 02:16:21;;;;;;;15.55;13.55;;;8.70;99.90;;;;;;5092554;28;20047;-65
2023/04/22 02:18:47;;;;;;;17.92;14.77;;;8.70;99.90;;;;;;5092126;28;20055;-66
2023/04/22 02:21:13;;;;;;;19.63;11.75;;;8.60;99.90;;;;;;5092853;28;20043;-66
2023/04/22 02:23:40;;;;;;;11.98;10.65;;;9.10;99.90;;;;;;5093653;28;20046;-65
2023/04/22 02:26:07;;;;;;;18.63;12.88;;;8.70;99.90;;;;;;5095831;27;20520;-65
2023/04/22 02:28:33;;;;;;;18.05;12.88;;;8.60;99.90;;;;;;5096723;27;20118;-65
2023/04/22 02:30:59;;;;;;;13.43;11.10;;;8.50;99.90;;;;;;5095619;27;20039;-65
2023/04/22 02:33:24;;;;;;;29.35;14.15;;;8.60;99.90;;;;;;5096145;27;20057;-65
2023/04/22 02:35:50;;;;;;;15.35;12.55;;;8.30;99.90;;;;;;5095815;27;20043;-65
2023/04/22 02:38:16;;;;;;;23.52;16.00;;;9.20;99.90;;;;;;5096924;27;20132;-66
2023/04/22 02:40:42;;;;;;;18.42;14.77;;;8.50;99.90;;;;;;5094950;27;20084;-65
2023/04/22 02:43:08;;;;;;;16.45;13.82;;;8.30;99.90;;;;;;5094757;27;20039;-66
2023/04/22 02:45:33;;;;;;;17.08;13.65;;;8.40;99.90;;;;;;5096669;27;20103;-67
2023/04/22 02:47:59;;;;;;;16.83;14.52;;;8.30;99.90;;;;;;5095753;27;20048;-67
2023/04/22 02:50:25;;;;;;;17.42;14.00;;;8.30;99.90;;;;;;5096044;27;20173;-66
2023/04/22 02:52:50;;;;;;;29.63;12.98;;;9.10;99.90;;;;;;5095055;27;20055;-66
2023/04/22 02:55:16;;;;;;;11.55;9.32;;;8.20;99.90;;;;;;5096503;27;20486;-66
2023/04/22 02:57:42;;;;;;;8.88;6.38;;;8.10;99.90;;;;;;5094777;27;20043;-66
2023/04/22 03:00:09;;;;;;;11.57;9.13;;;7.80;99.90;;;;;;5076287;28;20127;-66
2023/04/22 03:02:35;;;;;;;11.23;7.30;;;7.80;99.90;;;;;;5094533;28;20079;-65
2023/04/22 03:05:01;;;;;;;360.58;15.95;;;7.70;99.90;;;;;;5096199;27;20078;-65
2023/04/22 03:07:27;;;;;;;30.63;9.95;;;7.60;99.90;;;;;;5097740;27;20056;-64
2023/04/22 03:09:54;;;;;;;50.70;6.57;;;7.50;99.90;;;;;;5095049;27;20196;-64
2023/04/22 03:12:20;;;;;;;56.42;9.32;;;7.50;99.90;;;;;;5094389;27;20044;-64
2023/04/22 03:14:46;;;;;;;88.68;8.25;;;8.80;99.90;;;;;;5096178;27;20051;-65
2023/04/22 03:17:12;;;;;;;37.25;7.35;;;8.30;99.90;;;;;;5094837;27;20043;-64
2023/04/22 03:19:38;;;;;;;102.75;7.88;;;7.10;99.90;;;;;;5076657;27;20048;-64
2023/04/22 03:22:04;;;;;;;212.35;8.77;;;8.30;99.90;;;;;;5095498;27;20048;-65
2023/04/22 03:24:29;;;;;;;23.90;9.27;;;7.10;99.90;;;;;;5077740;27;20044;-64
2023/04/22 03:26:55;;;;;;;14.55;9.30;;;7.10;99.90;;;;;;5095404;27;20130;-64
2023/04/22 03:29:21;;;;;;;12.82;6.60;;;8.40;99.90;;;;;;5094415;27;20039;-65
2023/04/22 03:31:46;;;;;;;13.07;10.88;;;7.00;99.90;;;;;;5095450;27;20180;-64
2023/04/22 03:34:12;;;;;;;7.70;4.18;;;7.80;99.90;;;;;;5094986;27;20050;-64
2023/04/22 03:36:38;;;;;;;7.93;5.30;;;7.00;99.90;;;;;;5096411;27;20674;-64
2023/04/22 03:39:04;;;;;;;7.00;4.13;;;7.30;99.90;;;;;;5096102;27;20051;-64
2023/04/22 03:41:29;;;;;;;9.10;7.53;;;6.90;99.90;;;;;;5094779;27;20856;-64
2023/04/22 03:43:55;;;;;;;10.38;9.02;;;7.30;99.90;;;;;;5094428;27;20038;-64
2023/04/22 03:46:21;;;;;;;6.50;4.20;;;7.00;99.90;;;;;;5093662;27;20067;-64
2023/04/22 03:48:46;;;;;;;10.90;7.97;;;6.90;99.90;;;;;;5095101;27;20039;-64
2023/04/22 03:51:12;;;;;;;29.83;9.45;;;8.30;99.90;;;;;;5095726;27;20047;-65
2023/04/22 03:53:38;;;;;;;15.23;13.60;;;6.70;99.90;;;;;;5094334;27;20381;-64
2023/04/22 03:56:04;;;;;;;9.98;7.43;;;6.80;99.90;;;;;;5094174;27;20043;-64
2023/04/22 03:58:30;;;;;;;16.95;13.85;;;6.70;99.90;;;;;;5076995;28;20039;-65
2023/04/22 04:00:55;;;;;;;9.98;8.60;;;6.70;99.90;;;;;;5076357;28;20042;-64
2023/04/22 04:03:21;;;;;;;16.58;12.20;;;6.70;99.90;;;;;;5094014;28;20484;-63
2023/04/22 04:05:47;;;;;;;43.17;9.00;;;7.20;99.90;;;;;;5093888;27;20757;-63
2023/04/22 04:08:13;;;;;;;39.88;11.95;;;7.00;99.90;;;;;;5096418;27;20039;-64
2023/04/22 04:10:38;;;;;;;14.60;12.30;;;8.40;99.90;;;;;;5095078;27;20771;-64
2023/04/22 04:13:04;;;;;;;14.82;11.55;;;6.80;99.90;;;;;;5094603;27;20679;-65
2023/04/22 04:15:31;;;;;;;14.85;13.27;;;6.80;99.90;;;;;;5094876;27;20135;-64
2023/04/22 04:17:59;;;;;;;22.23;19.02;;;6.70;99.90;;;;;;5094607;27;20066;-64
2023/04/22 04:20:26;;;;;;;18.80;16.30;;;7.70;99.90;;;;;;5093931;27;20044;-64
2023/04/22 04:22:51;;;;;;;9.05;7.65;;;6.70;99.90;;;;;;5093921;27;20047;-63
2023/04/22 04:25:20;;;;;;;13.75;11.55;;;6.70;99.90;;;;;;5094144;27;20039;-63
2023/04/22 04:27:46;;;;;;;18.92;15.57;;;6.70;99.90;;;;;;5094312;27;20051;-63
2023/04/22 04:30:13;;;;;;;348.90;12.70;;;6.60;99.90;;;;;;5093526;27;20040;-63
2023/04/22 04:32:39;;;;;;;188.63;10.20;;;6.50;99.90;;;;;;5076914;28;20450;-64
2023/04/22 04:35:05;;;;;;;20.52;12.30;;;8.00;99.90;;;;;;5094359;27;20564;-64
2023/04/22 04:37:31;;;;;;;18.67;14.52;;;6.40;99.90;;;;;;5061648;27;20051;-65
2023/04/22 04:39:58;;;;;;;31.48;9.60;;;6.40;99.90;;;;;;5094448;27;20404;-63
2023/04/22 04:42:24;;;;;;;18.73;8.70;;;6.50;99.90;;;;;;5094351;27;20050;-64
2023/04/22 04:44:50;;;;;;;15.15;9.63;;;8.80;99.90;;;;;;5093220;28;20039;-63
2023/04/22 04:47:17;;;;;;;164.77;12.20;;;6.70;99.90;;;;;;5093076;28;20044;-63
2023/04/22 04:49:44;;;;;;;143.27;10.52;;;6.60;99.90;;;;;;5092377;28;20071;-63
2023/04/22 04:52:10;;;;;;;53.72;10.60;;;6.80;99.90;;;;;;5092408;28;20419;-63
2023/04/22 04:54:36;;;;;;;19.10;15.55;;;6.70;99.90;;;;;;5094887;27;20146;-63
2023/04/22 04:57:03;;;;;;;41.30;15.85;;;6.80;99.90;;;;;;5093259;27;20075;-63
2023/04/22 04:59:29;;;;;;;19.83;17.48;;;6.90;99.90;;;;;;5093247;27;20047;-63
2023/04/22 05:01:55;;;;;;;16.75;14.95;;;7.20;99.90;;;;;;5092204;27;20389;-64
2023/04/22 05:04:21;;;;;;;15.50;13.23;;;7.10;99.90;;;;;;5093231;27;20047;-63
2023/04/22 05:06:46;;;;;;;15.93;12.75;;;7.20;99.90;;;;;;5094410;27;20403;-63
2023/04/22 05:09:12;;;;;;;10.57;9.48;;;7.40;99.90;;;;;;5093106;28;20042;-63
2023/04/22 05:11:38;;;;;;;11.82;9.90;;;7.40;99.90;;;;;;5093902;27;20051;-63
2023/04/22 05:14:04;;;;;;;15.15;12.93;;;7.40;99.90;;;;;;5074392;28;20106;-63
2023/04/22 05:16:31;;;;;;;21.38;15.70;;;7.60;99.90;;;;;;5092566;27;20039;-62
2023/04/22 05:18:56;;;;;;;12.75;11.45;;;7.70;99.90;;;;;;5072345;28;20517;-63
2023/04/22 05:21:22;;;;;;;13.60;12.20;;;7.70;99.90;;;;;;5094824;28;20176;-63
2023/04/22 05:23:48;;;;;;;19.95;13.82;;;7.90;99.90;;;;;;5092446;27;20404;-63
2023/04/22 05:26:14;;;;;;;16.65;14.60;;;7.80;99.90;;;;;;5073968;28;20070;-63
2023/04/22 05:28:40;;;;;;;14.55;13.05;;;7.90;99.90;;;;;;5073749;28;21872;-62
2023/04/22 05:31:05;;;;;;;17.42;13.77;;;8.80;99.90;;;;;;5092918;27;20073;-63
2023/04/22 05:33:31;;;;;;;18.55;15.50;;;8.20;99.90;;;;;;5092405;27;20126;-62
2023/04/22 05:35:57;;;;;;;16.88;13.93;;;8.40;99.90;;;;;;5073410;28;20501;-62
2023/04/22 05:38:22;;;;;;;17.20;14.40;;;8.30;99.90;;;;;;5093169;28;20199;-62
2023/04/22 05:40:48;;;;;;;17.23;14.25;;;8.20;99.90;;;;;;5091758;28;20047;-63
2023/04/22 05:43:15;;;;;;;15.90;14.20;;;8.50;99.90;;;;;;5091904;28;20056;-62
2023/04/22 05:45:40;;;;;;;16.52;13.65;;;8.70;99.90;;;;;;5093601;28;20916;-63
2023/04/22 05:48:06;;;;;;;16.27;14.55;;;8.60;99.90;;;;;;5093612;28;20088;-62
2023/04/22 05:50:32;;;;;;;14.23;12.73;;;8.60;99.90;;;;;;5091180;28;20062;-63
2023/04/22 05:52:58;;;;;;;16.92;13.32;;;8.80;99.90;;;;;;5074586;28;20603;-62
2023/04/22 05:55:23;;;;;;;16.42;13.52;;;8.70;99.90;;;;;;5092878;28;20120;-64
2023/04/22 05:57:50;;;;;;;15.73;13.90;;;8.80;99.90;;;;;;5073893;28;20044;-63
2023/04/22 06:00:16;;;;;;;14.88;13.25;;;8.90;99.90;;;;;;5096530;27;20035;-62
2023/04/22 06:02:42;;;;;;;14.85;13.23;;;8.80;99.90;;;;;;5096229;27;20118;-62
2023/04/22 06:05:08;;;;;;;13.73;12.18;;;9.00;99.90;;;;;;5097159;27;20131;-62
2023/04/22 06:07:34;;;;;;;17.13;12.20;;;8.90;99.90;;;;;;5098068;28;20054;-63
2023/04/22 06:10:00;;;;;;;14.93;12.65;;;8.90;99.90;;;;;;5097186;27;20040;-63
2023/04/22 06:12:26;;;;;;;20.60;13.85;;;8.90;99.90;;;;;;5096087;27;20050;-62
2023/04/22 06:14:52;;;;;;;13.90;11.32;;;9.00;99.90;;;;;;5097137;27;20108;-63
2023/04/22 06:17:18;;;;;;;16.80;13.00;;;9.10;99.90;;;;;;5077697;27;20047;-62
2023/04/22 06:19:43;;;;;;;15.10;13.55;;;9.00;99.90;;;;;;5077788;27;20508;-64
2023/04/22 06:22:09;;;;;;;16.05;14.15;;;9.10;99.90;;;;;;5096411;27;20043;-63
2023/04/22 06:24:35;;;;;;;14.73;13.13;;;9.20;99.90;;;;;;5096670;27;20100;-63
2023/04/22 06:27:01;;;;;;;15.32;13.45;;;9.40;99.90;;;;;;5095392;28;20047;-63
2023/04/22 06:29:27;;;;;;;16.83;15.13;;;9.60;99.90;;;;;;5096062;28;20453;-62
2023/04/22 06:31:53;;;;;;;14.95;13.30;;;10.00;99.90;;;;;;5096426;27;20678;-62
2023/04/22 06:34:20;;;;;;;15.73;13.57;;;10.70;99.90;;;;;;5097084;27;20393;-63
2023/04/22 06:36:45;;;;;;;14.15;12.40;;;11.00;99.90;;;;;;5096047;27;20531;-63
2023/04/22 06:39:11;;;;;;;14.23;11.73;;;10.90;99.90;;;;;;5097136;27;20042;-62
2023/04/22 06:41:37;;;;;;;11.52;10.32;;;11.00;99.90;;;;;;5095477;27;20046;-62
2023/04/22 06:44:03;;;;;;;12.18;10.90;;;10.90;99.90;;;;;;5097066;27;20048;-63
2023/04/22 06:46:28;;;;;;;11.88;10.25;;;11.10;99.90;;;;;;5095472;27;20391;-62
2023/04/22 06:48:54;;;;;;;12.05;10.32;;;11.20;99.90;;;;;;5095262;27;20086;-63
2023/04/22 06:51:20;;;;;;;11.30;9.95;;;11.20;99.90;;;;;;5095823;27;20133;-64
2023/04/22 06:53:45;;;;;;;11.57;10.27;;;11.20;99.90;;;;;;5077148;27;20043;-62
2023/04/22 06:56:11;;;;;;;12.07;10.00;;;11.10;99.90;;;;;;5097196;27;20024;-62
2023/04/22 06:58:37;;;;;;;14.57;10.45;;;11.10;99.90;;;;;;5096177;27;20046;-62
2023/04/22 07:01:03;;;;;;;12.82;10.20;;;11.20;99.90;;;;;;5096038;27;20047;-64
2023/04/22 07:03:28;;;;;;;13.63;11.55;;;11.00;99.90;;;;;;5077544;28;20039;-62
2023/04/22 07:05:54;;;;;;;13.95;10.63;;;11.30;99.90;;;;;;5095476;27;20158;-62
2023/04/22 07:08:20;;;;;;;12.10;10.25;;;11.30;99.90;;;;;;5097583;27;20039;-63
2023/04/22 07:10:46;;;;;;;14.15;10.35;;;11.40;99.90;;;;;;5095148;27;20044;-63
2023/04/22 07:13:11;;;;;;;11.55;9.77;;;11.50;99.90;;;;;;5096111;27;20899;-62
2023/04/22 07:15:37;;;;;;;13.40;10.68;;;11.60;99.90;;;;;;5096464;27;20040;-63
2023/04/22 07:18:03;;;;;;;14.23;11.43;;;11.50;99.90;;;;;;5095713;27;20043;-63
2023/04/22 07:20:28;;;;;;;12.27;10.07;;;11.50;99.90;;;;;;5059605;27;20038;-62
2023/04/22 07:22:54;;;;;;;13.98;9.73;;;11.60;99.90;;;;;;5096510;27;20128;-64
2023/04/22 07:25:20;;;;;;;14.18;10.75;;;11.50;99.90;;;;;;5095615;28;20043;-63
2023/04/22 07:27:45;;;;;;;12.43;10.50;;;11.80;99.90;;;;;;5076343;28;20043;-63
2023/04/22 07:30:12;;;;;;;11.60;9.70;;;12.00;99.90;;;;;;5095570;27;20039;-63
2023/04/22 07:32:38;;;;;;;11.05;9.88;;;11.90;99.90;;;;;;5095535;27;20071;-64
2023/04/22 07:35:04;;;;;;;11.13;9.80;;;12.00;99.90;;;;;;5067463;28;20073;-65
2023/04/22 07:37:30;;;;;;;13.60;11.10;;;12.20;99.90;;;;;;5095867;27;20050;-64
2023/04/22 07:39:56;;;;;;;12.45;9.98;;;12.20;99.90;;;;;;5095786;27;20119;-65
2023/04/22 07:42:22;;;;;;;13.45;12.00;;;12.10;99.90;;;;;;5076532;28;20500;-64
2023/04/22 07:44:47;;;;;;;14.93;10.48;;;13.30;99.90;;;;;;5094906;27;20456;-64
2023/04/22 07:47:13;;;;;;;12.48;10.77;;;12.40;99.90;;;;;;5094744;27;20123;-64
2023/04/22 07:49:39;;;;;;;11.93;10.63;;;12.60;99.90;;;;;;5093225;27;20036;-64
2023/04/22 07:52:05;;;;;;;14.98;9.48;;;12.60;99.90;;;;;;5095206;27;20134;-65
2023/04/22 07:54:30;;;;;;;11.52;10.23;;;12.70;99.90;;;;;;5094079;27;21603;-65
2023/04/22 07:56:57;;;;;;;11.45;10.25;;;12.90;99.90;;;;;;5094401;27;20050;-65
2023/04/22 07:59:23;;;;;;;12.60;10.45;;;13.10;99.90;;;;;;5093799;27;20051;-63
2023/04/22 08:01:48;;;;;;;11.55;9.52;;;13.20;99.90;;;;;;5095260;27;20043;-65
2023/04/22 08:04:14;;;;;;;12.13;8.88;;;13.40;99.90;;;;;;5094549;27;20051;-65
2023/04/22 08:06:40;;;;;;;10.45;8.95;;;13.40;99.90;;;;;;5094182;27;20059;-65
2023/04/22 08:09:06;;;;;;;11.27;8.40;;;13.70;99.90;;;;;;5095954;27;20039;-65
2023/04/22 08:11:32;;;;;;;10.10;8.63;;;13.70;99.90;;;;;;5076984;28;20098;-65
2023/04/22 08:13:57;;;;;;;11.65;9.13;;;13.80;99.90;;;;;;5074933;28;20040;-66
2023/04/22 08:16:23;;;;;;;12.10;8.50;;;13.90;99.90;;;;;;5093852;27;20051;-65
2023/04/22 08:18:51;;;;;;;11.02;8.23;;;14.10;99.90;;;;;;5092990;27;20071;-65
2023/04/22 08:21:16;;;;;;;10.43;8.50;;;14.20;99.90;;;;;;5093828;27;20096;-65
2023/04/22 08:23:42;;;;;;;10.60;8.65;;;14.50;99.90;;;;;;5092949;28;20043;-66
2023/04/22 08:26:10;;;;;;;10.95;8.73;;;14.70;99.90;;;;;;5094364;27;20624;-66
2023/04/22 08:28:36;;;;;;;10.93;8.57;;;15.00;99.90;;;;;;5094284;27;20488;-66
2023/04/22 08:31:02;;;;;;;10.48;9.38;;;15.20;99.90;;;;;;5094258;27;20067;-65
2023/04/22 08:33:28;;;;;;;12.75;9.00;;;15.80;99.90;;;;;;5095430;28;20051;-66
2023/04/22 08:35:54;;;;;;;14.00;9.05;;;15.90;99.90;;;;;;5094723;27;20105;-66
2023/04/22 08:38:19;;;;;;;13.50;9.05;;;16.30;99.90;;;;;;5096256;27;20118;-66
2023/04/22 08:40:46;;;;;;;13.77;9.85;;;16.40;99.90;;;;;;5075705;27;20047;-65
2023/04/22 08:43:12;;;;;;;12.13;9.43;;;16.30;99.90;;;;;;5076665;28;20036;-66
2023/04/22 08:45:39;;;;;;;11.70;9.50;;;16.30;99.90;;;;;;5093472;27;20050;-65
2023/04/22 08:48:08;;;;;;;10.60;8.82;;;16.50;99.90;;;;;;5093928;27;20050;-66
2023/04/22 08:50:37;;;;;;;11.80;8.02;;;16.80;99.90;;;;;;5092937;28;20139;-65
2023/04/22 08:53:03;;;;;;;11.35;9.23;;;16.80;99.90;;;;;;5092826;27;20076;-64
2023/04/22 08:55:29;;;;;;;10.10;9.02;;;16.90;99.90;;;;;;5095018;27;20039;-64
2023/04/22 08:57:57;;;;;;;10.32;9.02;;;17.00;99.90;;;;;;5093311;27;20058;-64
2023/04/22 09:00:23;;;;;;;12.07;9.93;;;17.10;99.90;;;;;;5093065;28;20052;-65
2023/04/22 09:02:50;;;;;;;10.93;8.95;;;17.50;99.90;;;;;;5075277;28;20694;-64
2023/04/22 09:05:17;;;;;;;11.68;9.27;;;17.30;99.90;;;;;;5074827;28;20137;-65
2023/04/22 09:07:43;;;;;;;10.80;9.15;;;17.50;99.90;;;;;;5092326;28;20710;-64
2023/04/22 09:10:10;;;;;;;10.88;9.48;;;17.80;99.90;;;;;;5076188;28;20587;-64
2023/04/22 09:12:37;;;;;;;10.55;9.15;;;17.90;99.90;;;;;;5093680;28;20063;-64
2023/04/22 09:15:05;;;;;;;10.93;9.48;;;18.30;99.90;;;;;;5074687;28;20655;-63
2023/04/22 09:17:33;;;;;;;10.48;9.13;;;18.60;99.90;;;;;;5094145;28;20385;-63
2023/04/22 09:20:00;;;;;;;11.75;8.85;;;18.70;99.90;;;;;;5094097;28;20922;-63
2023/04/22 09:22:28;;;;;;;10.80;9.60;;;18.80;99.90;;;;;;5092924;28;20035;-63
2023/04/22 09:24:54;;;;;;;10.98;8.90;;;19.20;99.90;;;;;;5092776;27;20039;-64
2023/04/22 09:27:23;;;;;;;12.55;9.13;;;19.30;99.90;;;;;;5074140;28;20054;-63
2023/04/22 09:29:51;;;;;;;9.50;8.50;;;19.70;99.90;;;;;;5092740;28;21591;-62
2023/04/22 09:32:17;;;;;;;10.43;8.13;;;19.40;99.90;;;;;;5094006;27;20091;-63
2023/04/22 09:34:53;;;;;;;11.07;9.13;;;18.60;99.90;;;;;;5092093;28;20142;-63
2023/04/22 09:37:25;;;;;;;11.02;8.95;;;18.70;99.90;;;;;;5093532;28;20062;-63
2023/04/22 09:39:51;;;;;;;13.10;9.75;;;18.60;99.90;;;;;;5076390;28;20047;-63
2023/04/22 09:42:18;;;;;;;10.60;8.80;;;18.10;99.90;;;;;;5075029;28;20643;-63
2023/04/22 09:44:53;;;;;;;11.25;9.02;;;18.10;99.90;;;;;;5092874;28;20044;-64
2023/04/22 09:47:22;;;;;;;10.27;8.48;;;17.80;99.90;;;;;;5075505;28;20118;-64
2023/04/22 09:49:48;;;;;;;10.48;9.02;;;17.70;99.90;;;;;;5093159;28;20066;-62
2023/04/22 09:52:25;;;;;;;14.52;9.07;;;17.40;99.90;;;;;;5093614;28;21121;-62
2023/04/22 09:54:53;;;;;;;13.43;9.32;;;17.60;99.90;;;;;;5094716;28;20044;-63
2023/04/22 09:57:20;;;;;;;9.63;8.48;;;17.60;99.90;;;;;;5092874;28;20658;-63
2023/04/22 09:59:46;;;;;;;13.13;8.82;;;17.70;99.90;;;;;;5093221;28;20036;-64
2023/04/22 10:02:13;;;;;;;10.60;9.23;;;17.80;99.90;;;;;;5093492;28;20039;-63
2023/04/22 10:04:39;;;;;;;10.80;7.95;;;18.20;99.90;;;;;;5093170;28;20133;-63
2023/04/22 10:07:05;;;;;;;11.73;7.50;;;18.40;99.90;;;;;;5093869;28;20043;-63
2023/04/22 10:09:32;;;;;;;9.10;7.97;;;18.50;99.90;;;;;;5094699;28;20039;-64
2023/04/22 10:11:57;;;;;;;10.02;8.32;;;18.50;99.90;;;;;;5092450;28;20039;-63
2023/04/22 10:14:25;;;;;;;9.65;7.75;;;19.10;99.90;;;;;;5092282;28;20416;-63
2023/04/22 10:16:58;;;;;;;10.07;8.00;;;19.10;99.90;;;;;;5093451;28;20047;-63
2023/04/22 10:19:25;;;;;;;8.90;7.78;;;19.20;99.90;;;;;;5092192;28;20541;-64
2023/04/22 10:21:55;;;;;;;11.48;8.50;;;19.40;99.90;;;;;;5093311;28;20158;-63
2023/04/22 10:24:23;;;;;;;10.85;7.43;;;19.30;99.90;;;;;;5073879;28;20047;-63
2023/04/22 10:26:57;;;;;;;9.35;7.75;;;19.40;99.90;;;;;;5091569;28;20126;-62
2023/04/22 10:29:25;;;;;;;9.15;6.60;;;19.70;99.90;;;;;;5073106;28;20407;-63
2023/04/22 10:32:13;;;;;;;7.65;6.60;;;19.70;99.90;;;;;;5092483;28;20114;-63
2023/04/22 10:34:39;;;;;;;8.50;6.20;;;19.80;99.90;;;;;;5080569;28;20070;-61
2023/04/22 10:37:11;;;;;;;8.40;5.82;;;19.60;99.90;;;;;;5092434;28;20728;-63
2023/04/22 10:39:39;;;;;;;9.48;7.18;;;19.40;99.90;;;;;;5093725;28;20134;-62
2023/04/22 10:42:12;;;;;;;8.05;6.65;;;19.40;99.90;;;;;;5093387;28;20040;-63
2023/04/22 10:44:51;;;;;;;10.13;6.70;;;19.60;99.90;;;;;;5091955;28;20047;-63
2023/04/22 10:47:43;;;;;;;7.53;5.88;;;19.80;99.90;;;;;;5096257;27;20039;-63
2023/04/22 10:50:24;;;;;;;10.02;6.05;;;19.80;99.90;;;;;;5091948;27;20059;-63
2023/04/22 10:53:20;;;;;;;8.83;6.90;;;19.90;99.90;;;;;;5095751;27;20131;-62
2023/04/22 10:55:50;;;;;;;8.43;6.70;;;20.20;99.90;;;;;;5094307;27;20048;-62
2023/04/22 10:58:23;;;;;;;8.00;6.75;;;20.10;99.90;;;;;;5095454;27;20047;-62
2023/04/22 11:00:58;;;;;;;9.10;5.75;;;20.30;99.90;;;;;;5095824;27;20070;-62
2023/04/22 11:03:27;;;;;;;10.00;6.70;;;20.20;99.90;;;;;;5095237;28;20040;-63
2023/04/22 11:06:15;;;;;;;7.38;6.00;;;20.20;99.90;;;;;;5095168;27;20054;-63
2023/04/22 11:08:46;;;;;;;9.25;6.60;;;20.30;99.90;;;;;;5077813;27;20039;-63
2023/04/22 11:11:15;;;;;;;10.45;5.90;;;20.10;99.90;;;;;;5096427;27;20081;-63
2023/04/22 11:13:42;;;;;;;7.70;6.13;;;20.40;99.90;;;;;;5076932;27;20515;-62
2023/04/22 11:16:08;;;;;;;7.30;5.60;;;20.50;99.90;;;;;;5094936;27;20035;-62
2023/04/22 11:18:34;;;;;;;7.97;6.18;;;20.50;99.90;;;;;;5077544;28;20051;-63
2023/04/22 11:21:08;;;;;;;9.23;5.88;;;20.80;99.90;;;;;;5095966;27;20051;-62
2023/04/22 11:23:35;;;;;;;9.18;6.03;;;20.80;99.90;;;;;;5078414;27;20549;-62
2023/04/22 11:26:03;;;;;;;7.97;6.72;;;21.00;99.90;;;;;;5095411;27;20131;-62
2023/04/22 11:28:29;;;;;;;8.73;5.38;;;21.00;99.90;;;;;;5094854;27;20075;-62
2023/04/22 11:31:10;;;;;;;7.72;5.45;;;21.00;99.90;;;;;;5095055;27;20093;-62
2023/04/22 11:33:37;;;;;;;7.88;6.07;;;21.00;99.90;;;;;;5096411;27;20051;-62
2023/04/22 11:36:08;;;;;;;7.22;5.90;;;21.00;99.90;;;;;;5095171;27;20047;-63
2023/04/22 11:38:34;;;;;;;7.50;5.50;;;20.80;99.90;;;;;;5095145;27;20055;-62
2023/04/22 11:41:00;;;;;;;7.38;5.55;;;20.60;99.90;;;;;;5096217;27;20465;-62
2023/04/22 11:43:26;;;;;;;7.32;5.00;;;20.90;99.90;;;;;;5095884;27;20074;-62
2023/04/22 11:45:55;;;;;;;9.57;5.60;;;21.00;99.90;;;;;;5094652;27;20038;-62
2023/04/22 11:48:21;;;;;;;6.55;5.18;;;21.00;99.90;;;;;;5094278;27;20586;-62
2023/04/22 11:50:47;;;;;;;10.38;5.57;;;21.00;99.90;;;;;;5093035;27;20164;-62
2023/04/22 11:53:18;;;;;;;7.97;5.90;;;21.20;99.90;;;;;;5094366;27;20399;-61
2023/04/22 11:55:45;;;;;;;10.27;5.90;;;21.10;99.90;;;;;;5092414;27;20084;-63
2023/04/22 11:58:13;;;;;;;8.00;6.30;;;21.00;99.90;;;;;;5093929;27;20051;-62
2023/04/22 12:00:46;;;;;;;7.95;5.35;;;20.90;99.90;;;;;;5094253;27;20040;-64
2023/04/22 12:03:20;;;;;;;10.60;6.30;;;20.90;99.90;;;;;;5093864;27;20391;-64
2023/04/22 12:05:51;;;;;;;8.60;5.70;;;20.60;99.90;;;;;;5093271;27;20146;-64
2023/04/22 12:08:20;;;;;;;7.72;5.80;;;20.60;99.90;;;;;;5093193;27;20047;-63
2023/04/22 12:10:57;;;;;;;9.07;6.10;;;20.60;99.90;;;;;;5095035;27;20044;-64
2023/04/22 12:13:37;;;;;;;8.77;5.75;;;20.50;99.90;;;;;;5092119;27;20341;-64
2023/04/22 12:16:04;;;;;;;10.13;6.40;;;20.20;99.90;;;;;;5094114;27;20054;-64
2023/04/22 12:18:39;;;;;;;10.90;6.18;;;20.10;99.90;;;;;;5094307;27;20035;-65
2023/04/22 12:21:09;;;;;;;8.52;6.10;;;19.80;99.90;;;;;;5094391;27;20499;-65
2023/04/22 12:24:09;;;;;;;9.45;6.50;;;19.70;99.90;;;;;;5095184;27;20140;-66
2023/04/22 12:26:36;;;;;;;10.65;6.53;;;19.40;99.90;;;;;;5090981;27;20062;-65
2023/04/22 12:29:03;;;;;;;9.43;6.53;;;18.90;99.90;;;;;;5094538;27;20044;-64
2023/04/22 12:31:28;;;;;;;10.50;7.38;;;19.20;99.90;;;;;;5095628;27;20093;-65
2023/04/22 12:33:55;;;;;;;11.20;6.72;;;19.30;99.90;;;;;;5075696;28;20047;-64
2023/04/22 12:36:21;;;;;;;8.05;6.28;;;19.20;99.90;;;;;;5092925;27;20303;-65
2023/04/22 12:38:47;;;;;;;9.25;6.20;;;19.60;99.90;;;;;;5095595;27;20050;-65
2023/04/22 12:41:12;;;;;;;9.20;6.50;;;19.90;99.90;;;;;;5078204;28;20104;-65